createdAt,value
2022-12-08T00:00:12.367Z,-5.10
2022-12-08T00:10:49.468Z,-5.00
2022-12-08T00:15:48.991Z,-5.10
2022-12-08T00:20:46.318Z,-5.10
2022-12-08T00:33:12.760Z,-5.30
2022-12-08T00:35:43.252Z,-6.50
2022-12-08T00:40:46.324Z,-5.40
2022-12-08T00:43:15.572Z,-5.50
2022-12-08T00:45:44.905Z,-5.40
2022-12-08T00:48:14.865Z,-5.50
2022-12-08T00:50:43.422Z,-5.40
2022-12-08T00:53:11.952Z,-5.50
2022-12-08T00:58:09.485Z,-5.30
2022-12-08T01:05:37.123Z,-5.60
2022-12-08T01:08:07.855Z,-5.60
2022-12-08T01:10:37.594Z,-5.50
2022-12-08T01:15:35.266Z,-5.50
2022-12-08T01:23:02.930Z,-5.60
2022-12-08T01:32:59.136Z,-7.00
2022-12-08T01:35:27.639Z,-5.90
2022-12-08T01:37:56.192Z,-5.70
2022-12-08T01:40:26.120Z,-5.80
2022-12-08T01:42:54.884Z,-6.40
2022-12-08T01:45:27.029Z,-5.60
2022-12-08T01:48:00.715Z,-5.90
2022-12-08T01:50:30.935Z,-5.90
2022-12-08T01:53:03.824Z,-5.80
2022-12-08T01:55:39.933Z,-5.90
2022-12-08T01:58:17.185Z,-5.90
2022-12-08T02:00:46.140Z,-5.90
2022-12-08T02:03:20.188Z,-5.90
2022-12-08T02:05:49.423Z,-6.00
2022-12-08T02:08:18.658Z,-6.00
2022-12-08T02:10:53.423Z,-6.10
2022-12-08T02:13:25.052Z,-6.10
2022-12-08T02:16:02.761Z,-6.10
2022-12-08T02:19:22.155Z,-6.10
2022-12-08T02:21:51.327Z,-6.20
2022-12-08T02:24:29.270Z,-6.20
2022-12-08T02:27:32.040Z,-6.10
2022-12-08T02:30:16.806Z,-6.20
2022-12-08T02:34:09.155Z,-6.20
2022-12-08T02:36:48.704Z,-6.20
2022-12-08T02:39:30.402Z,-6.20
2022-12-08T02:42:09.269Z,-6.20
2022-12-08T02:44:44.767Z,-6.10
2022-12-08T02:47:17.796Z,-6.00
2022-12-08T02:49:46.855Z,-5.90
2022-12-08T02:52:46.122Z,-5.80
2022-12-08T02:55:25.781Z,-5.80
2022-12-08T02:58:15.257Z,-5.70
2022-12-08T03:01:02.412Z,-5.60
2022-12-08T03:03:39.786Z,-5.50
2022-12-08T03:06:21.779Z,-5.50
2022-12-08T03:08:57.381Z,-5.50
2022-12-08T03:11:34.402Z,-5.40
2022-12-08T03:14:06.332Z,-5.40
2022-12-08T03:16:39.951Z,-5.30
2022-12-08T03:19:15.341Z,-5.20
2022-12-08T03:21:47.288Z,-5.10
2022-12-08T03:24:19.326Z,-5.00
2022-12-08T03:26:53.443Z,-5.00
2022-12-08T03:29:22.638Z,-5.00
2022-12-08T03:31:56.499Z,-4.90
2022-12-08T03:34:28.217Z,-4.90
2022-12-08T03:36:56.849Z,-4.80
2022-12-08T03:39:26.799Z,-4.80
2022-12-08T03:46:53.282Z,-4.80
2022-12-08T03:51:51.313Z,-4.70
2022-12-08T03:54:20.110Z,-4.70
2022-12-08T03:56:50.261Z,-4.70
2022-12-08T03:59:18.796Z,-4.80
2022-12-08T04:11:43.511Z,-4.50
2022-12-08T04:14:13.674Z,-4.50
2022-12-08T04:21:40.146Z,-4.40
2022-12-08T04:24:10.010Z,-4.40
2022-12-08T04:26:38.737Z,-4.40
2022-12-08T04:29:07.391Z,-4.50
2022-12-08T04:31:37.561Z,-4.60
2022-12-08T04:34:06.401Z,-4.50
2022-12-08T04:36:34.991Z,-4.50
2022-12-08T04:39:03.911Z,-4.50
2022-12-08T04:41:32.438Z,-4.50
2022-12-08T04:44:00.954Z,-4.40
2022-12-08T04:48:59.782Z,-4.50
2022-12-08T04:58:54.914Z,-4.50
2022-12-08T05:01:23.744Z,-4.60
2022-12-08T05:06:22.696Z,-4.80
2022-12-08T05:08:51.253Z,-5.10
2022-12-08T05:13:50.209Z,-5.30
2022-12-08T05:18:47.810Z,-5.40
2022-12-08T05:23:46.767Z,-5.70
2022-12-08T05:26:15.486Z,-5.40
2022-12-08T05:28:44.364Z,-5.90
2022-12-08T05:31:15.274Z,-5.60
2022-12-08T05:36:15.345Z,-5.60
2022-12-08T05:41:17.797Z,-5.30
2022-12-08T05:43:46.798Z,-5.70
2022-12-08T05:46:16.256Z,-5.70
2022-12-08T05:51:20.029Z,-5.70
2022-12-08T05:53:49.728Z,-5.70
2022-12-08T05:56:20.726Z,-5.60
2022-12-08T05:58:49.800Z,-5.50
2022-12-08T06:01:23.706Z,-5.30
2022-12-08T06:03:52.773Z,-5.50
2022-12-08T06:11:23.182Z,-5.40
2022-12-08T06:13:53.203Z,-5.50
2022-12-08T06:16:22.286Z,-5.50
2022-12-08T06:21:20.991Z,-5.40
2022-12-08T06:23:51.215Z,-5.50
2022-12-08T06:26:22.417Z,-5.40
2022-12-08T06:28:51.884Z,-5.40
2022-12-08T06:31:23.459Z,-5.40
2022-12-08T06:33:52.192Z,-4.80
2022-12-08T06:36:24.542Z,-5.30
2022-12-08T06:41:23.770Z,-5.20
2022-12-08T06:46:21.873Z,-5.30
2022-12-08T06:48:50.877Z,-5.60
2022-12-08T06:51:23.000Z,-5.50
2022-12-08T07:06:24.003Z,-6.00
2022-12-08T07:11:24.221Z,-5.70
2022-12-08T07:13:52.971Z,-5.20
2022-12-08T07:18:50.930Z,-5.80
2022-12-08T07:21:20.125Z,-5.70
2022-12-08T07:23:55.970Z,-5.90
2022-12-08T07:26:28.204Z,-5.90
2022-12-08T07:31:28.567Z,-6.00
2022-12-08T07:38:55.739Z,-6.10
2022-12-08T07:41:27.667Z,-6.00
2022-12-08T07:43:57.484Z,-5.60
2022-12-08T07:46:27.766Z,-6.10
2022-12-08T07:48:57.169Z,-6.20
2022-12-08T07:51:26.413Z,-6.00
2022-12-08T07:53:56.228Z,-6.00
2022-12-08T08:01:27.266Z,-6.00
2022-12-08T08:03:58.110Z,-5.90
2022-12-08T08:06:26.874Z,-5.90
2022-12-08T08:08:55.711Z,-5.90
2022-12-08T08:11:26.570Z,-5.90
2022-12-08T08:13:55.323Z,-5.90
2022-12-08T08:21:45.550Z,-5.80
2022-12-08T08:24:11.848Z,-5.80
2022-12-08T08:26:41.762Z,-5.10
2022-12-08T08:29:10.502Z,-5.30
2022-12-08T08:44:07.158Z,-4.70
2022-12-08T08:49:04.880Z,-4.30
2022-12-08T08:51:33.480Z,-4.20
2022-12-08T08:56:31.075Z,-3.80
2022-12-08T09:01:30.096Z,-3.60
2022-12-08T09:06:29.255Z,-3.40
2022-12-08T09:11:26.901Z,-3.20
2022-12-08T09:13:58.826Z,-3.10
2022-12-08T09:16:27.590Z,-3.00
2022-12-08T09:18:57.880Z,-2.90
2022-12-08T09:21:28.119Z,-2.90
2022-12-08T09:23:59.341Z,-2.70
2022-12-08T09:26:30.218Z,-2.60
2022-12-08T09:28:59.539Z,-2.70
2022-12-08T09:31:28.743Z,-2.40
2022-12-08T09:33:59.325Z,-2.30
2022-12-08T09:36:27.994Z,-2.20
2022-12-08T09:38:56.525Z,-2.10
2022-12-08T09:41:39.191Z,-2.00
2022-12-08T09:44:47.053Z,-1.90
2022-12-08T09:47:22.614Z,-1.90
2022-12-08T09:49:59.819Z,-1.80
2022-12-08T09:52:33.838Z,-1.80
2022-12-08T09:55:13.808Z,-1.70
2022-12-08T09:57:42.368Z,-1.50
2022-12-08T10:00:15.372Z,-1.50
2022-12-08T10:02:45.710Z,-1.30
2022-12-08T10:05:17.025Z,-1.20
2022-12-08T10:07:50.200Z,-3.50
2022-12-08T10:10:30.779Z,-1.10
2022-12-08T10:13:07.576Z,-1.00
2022-12-08T10:15:48.063Z,-1.00
2022-12-08T10:18:20.190Z,-0.90
2022-12-08T10:20:52.680Z,-0.90
2022-12-08T10:23:36.494Z,-0.90
2022-12-08T10:26:12.340Z,-1.00
2022-12-08T10:31:18.646Z,-0.80
2022-12-08T10:33:50.045Z,-0.80
2022-12-08T10:36:20.336Z,-0.70
2022-12-08T10:41:18.714Z,-0.60
2022-12-08T10:43:51.226Z,-0.60
2022-12-08T10:46:22.015Z,-0.60
2022-12-08T10:48:54.651Z,-0.60
2022-12-08T10:51:31.133Z,-0.50
2022-12-08T10:53:59.854Z,-0.60
2022-12-08T10:56:30.392Z,-0.60
2022-12-08T10:59:15.589Z,-0.60
2022-12-08T11:01:47.733Z,-0.60
2022-12-08T11:04:20.360Z,-0.50
2022-12-08T11:06:52.173Z,-0.50
2022-12-08T11:09:31.904Z,-0.50
2022-12-08T11:12:02.116Z,-0.40
2022-12-08T11:14:33.024Z,-0.30
2022-12-08T11:17:08.107Z,-0.20
2022-12-08T11:19:41.212Z,-0.30
2022-12-08T11:22:26.477Z,-0.20
2022-12-08T11:25:04.558Z,-0.30
2022-12-08T11:27:36.576Z,-0.20
2022-12-08T11:30:15.527Z,-0.50
2022-12-08T11:32:46.747Z,-0.10
2022-12-08T11:35:25.506Z,0.20
2022-12-08T11:38:19.804Z,-0.10
2022-12-08T11:40:52.429Z,0.00
2022-12-08T11:43:28.903Z,0.00
2022-12-08T11:46:02.169Z,0.00
2022-12-08T11:48:37.345Z,0.00
2022-12-08T11:51:14.354Z,0.00
2022-12-08T11:53:54.322Z,0.00
2022-12-08T11:56:30.859Z,0.20
2022-12-08T11:59:03.072Z,0.10
2022-12-08T12:04:14.243Z,0.10
2022-12-08T12:07:26.134Z,0.20
2022-12-08T12:10:38.078Z,0.10
2022-12-08T12:13:41.340Z,0.30
2022-12-08T12:16:52.199Z,0.10
2022-12-08T12:19:23.273Z,0.20
2022-12-08T12:21:56.762Z,0.20
2022-12-08T12:24:34.214Z,0.20
2022-12-08T12:27:22.223Z,0.10
2022-12-08T12:29:56.737Z,0.20
2022-12-08T12:32:27.379Z,0.30
2022-12-08T12:34:59.229Z,0.30
2022-12-08T12:37:37.919Z,0.30
2022-12-08T12:40:17.786Z,0.30
2022-12-08T12:42:50.871Z,1.90
2022-12-08T12:45:31.976Z,0.40
2022-12-08T12:48:24.831Z,0.30
2022-12-08T12:50:55.455Z,0.30
2022-12-08T12:53:50.962Z,0.40
2022-12-08T12:56:52.969Z,0.30
2022-12-08T12:59:50.226Z,0.30
2022-12-08T13:02:28.628Z,0.30
2022-12-08T13:05:02.976Z,0.30
2022-12-08T13:07:34.985Z,0.30
2022-12-08T13:10:15.224Z,0.30
2022-12-08T13:12:45.747Z,0.40
2022-12-08T13:15:21.216Z,0.40
2022-12-08T13:17:51.347Z,0.40
2022-12-08T13:20:24.500Z,0.40
2022-12-08T13:23:31.688Z,0.40
2022-12-08T13:26:22.622Z,0.40
2022-12-08T13:29:22.613Z,0.40
2022-12-08T13:31:55.276Z,0.30
2022-12-08T13:34:37.000Z,0.30
2022-12-08T13:37:24.327Z,0.40
2022-12-08T13:39:57.975Z,0.40
2022-12-08T13:42:34.976Z,0.40
2022-12-08T13:45:33.492Z,0.30
2022-12-08T13:48:42.253Z,0.30
2022-12-08T13:57:13.901Z,0.30
2022-12-08T13:59:46.598Z,0.20
2022-12-08T14:02:24.093Z,0.20
2022-12-08T14:07:45.446Z,0.20
2022-12-08T14:10:19.402Z,0.20
2022-12-08T14:12:57.268Z,0.20
2022-12-08T14:15:31.246Z,0.10
2022-12-08T14:18:02.892Z,0.20
2022-12-08T14:20:51.695Z,0.20
2022-12-08T14:28:21.807Z,0.30
2022-12-08T14:30:51.494Z,0.30
2022-12-08T14:33:20.834Z,0.20
2022-12-08T14:35:55.843Z,0.20
2022-12-08T14:38:26.507Z,0.20
2022-12-08T14:41:05.195Z,0.10
2022-12-08T14:43:34.802Z,0.10
2022-12-08T14:46:07.840Z,0.00
2022-12-08T14:48:44.690Z,0.10
2022-12-08T14:51:27.621Z,0.00
2022-12-08T14:53:59.756Z,0.10
2022-12-08T14:56:34.247Z,0.00
2022-12-08T14:59:13.722Z,0.00
2022-12-08T15:01:43.866Z,0.00
2022-12-08T15:04:20.983Z,-0.10
2022-12-08T15:06:54.612Z,-0.10
2022-12-08T15:09:33.563Z,-0.20
2022-12-08T15:12:03.582Z,-0.20
2022-12-08T15:14:35.260Z,-0.30
2022-12-08T15:17:04.414Z,-0.20
2022-12-08T15:19:35.010Z,-0.20
2022-12-08T15:22:19.373Z,-0.20
2022-12-08T15:24:47.989Z,-0.20
2022-12-08T15:27:20.164Z,-0.10
2022-12-08T15:29:49.946Z,-0.20
2022-12-08T15:32:22.441Z,-0.20
2022-12-08T15:34:51.354Z,-0.20
2022-12-08T15:37:25.142Z,-0.30
2022-12-08T15:44:51.413Z,-0.30
2022-12-08T15:47:23.905Z,-0.20
2022-12-08T15:49:54.097Z,-0.30
2022-12-08T15:52:26.280Z,-0.30
2022-12-08T15:54:55.200Z,-0.20
2022-12-08T15:57:59.175Z,-0.30
2022-12-08T16:00:51.985Z,-0.20
2022-12-08T16:09:17.289Z,-0.20
2022-12-08T16:12:07.093Z,-0.30
2022-12-08T16:17:25.731Z,-0.50
2022-12-08T16:25:20.012Z,-0.40
2022-12-08T16:28:02.927Z,-0.50
2022-12-08T16:30:35.201Z,-0.50
2022-12-08T16:33:04.015Z,-0.50
2022-12-08T16:35:32.784Z,-0.50
2022-12-08T16:38:01.396Z,-0.50
2022-12-08T16:40:31.676Z,-0.60
2022-12-08T16:42:59.227Z,-0.60
2022-12-08T16:45:30.973Z,-0.70
2022-12-08T16:48:01.707Z,-0.80
2022-12-08T16:50:32.922Z,-0.90
2022-12-08T16:53:04.067Z,-0.80
2022-12-08T16:55:34.970Z,-0.90
2022-12-08T16:58:04.046Z,-1.00
2022-12-08T17:00:37.297Z,-1.00
2022-12-08T17:03:08.052Z,-1.00
2022-12-08T17:08:06.665Z,-1.40
2022-12-08T17:10:39.996Z,-1.50
2022-12-08T17:13:09.004Z,-1.50
2022-12-08T17:18:06.743Z,-1.80
2022-12-08T17:23:05.159Z,-2.00
2022-12-08T17:25:35.063Z,-2.10
2022-12-08T17:28:03.588Z,-2.10
2022-12-08T17:33:01.124Z,-2.30
2022-12-08T17:37:58.693Z,-2.30
2022-12-08T17:42:58.472Z,-2.70
2022-12-08T17:57:51.347Z,-2.60
2022-12-08T18:00:22.024Z,-2.70
2022-12-08T18:05:19.984Z,-2.60
2022-12-08T18:07:48.583Z,-2.80
2022-12-08T18:12:47.377Z,-2.90
2022-12-08T18:15:20.997Z,-2.90
2022-12-08T18:17:49.779Z,-2.70
2022-12-08T18:22:47.417Z,-3.20
2022-12-08T18:30:18.629Z,-3.60
2022-12-08T18:32:50.738Z,-3.90
2022-12-08T18:35:23.066Z,-4.00
2022-12-08T18:40:20.714Z,-3.50
2022-12-08T18:42:49.228Z,-4.10
2022-12-08T18:45:22.517Z,-4.20
2022-12-08T18:47:53.587Z,-5.00
2022-12-08T18:50:22.322Z,-4.00
2022-12-08T19:00:20.546Z,-4.20
2022-12-08T19:05:20.203Z,-4.50
2022-12-08T19:07:49.053Z,-4.30
2022-12-08T19:20:14.581Z,-4.70
2022-12-08T19:22:44.752Z,-4.80
2022-12-08T19:27:42.375Z,-4.80
2022-12-08T19:30:13.110Z,-4.90
2022-12-08T19:40:32.064Z,-5.00
2022-12-08T19:45:47.036Z,-4.90
2022-12-08T19:53:16.074Z,-4.90
2022-12-08T19:55:46.402Z,-5.00
2022-12-08T19:58:15.565Z,-5.10
2022-12-08T20:00:45.198Z,-5.10
2022-12-08T20:03:17.669Z,-5.10
2022-12-08T20:05:52.854Z,-5.30
2022-12-08T20:08:21.422Z,-5.10
2022-12-08T20:10:56.029Z,-5.10
2022-12-08T20:16:14.080Z,-6.20
2022-12-08T20:18:44.164Z,-5.30
2022-12-08T20:21:13.622Z,-5.30
2022-12-08T20:26:15.441Z,-5.40
2022-12-08T20:28:44.017Z,-5.20
2022-12-08T20:31:20.399Z,-5.40
2022-12-08T20:33:49.683Z,-5.70
2022-12-08T20:36:20.174Z,-5.50
2022-12-08T20:41:19.733Z,-5.50
2022-12-08T20:43:49.610Z,-5.50
2022-12-08T20:46:19.865Z,-5.70
2022-12-08T20:48:49.443Z,-5.70
2022-12-08T20:51:20.825Z,-5.80
2022-12-08T20:53:50.294Z,-5.50
2022-12-08T20:56:22.781Z,-5.70
2022-12-08T20:58:52.821Z,-5.80
2022-12-08T21:01:24.267Z,-5.70
2022-12-08T21:03:53.727Z,-5.80
2022-12-08T21:06:24.495Z,-5.80
2022-12-08T21:08:54.075Z,-5.70
2022-12-08T21:11:24.467Z,-5.70
2022-12-08T21:16:22.166Z,-5.40
2022-12-08T21:18:50.826Z,-5.60
2022-12-08T21:21:19.432Z,-5.50
2022-12-08T21:26:20.879Z,-5.50
2022-12-08T21:28:51.239Z,-5.40
2022-12-08T21:31:21.683Z,-5.00
2022-12-08T21:36:22.501Z,-5.30
2022-12-08T21:38:51.636Z,-5.20
2022-12-08T21:41:42.972Z,-5.10
2022-12-08T21:44:18.718Z,-5.30
2022-12-08T21:46:48.048Z,-5.40
2022-12-08T21:49:17.415Z,-4.70
2022-12-08T21:54:18.938Z,-4.90
2022-12-08T21:59:19.974Z,-5.20
2022-12-08T22:01:49.094Z,-5.30
2022-12-08T22:04:21.207Z,-5.10
2022-12-08T22:09:19.546Z,-5.00
2022-12-08T22:11:48.579Z,-5.00
2022-12-08T22:14:18.609Z,-4.30
2022-12-08T22:19:16.975Z,-4.80
2022-12-08T22:31:45.273Z,-4.60
2022-12-08T22:41:42.943Z,-4.50
2022-12-08T22:46:41.798Z,-4.40
2022-12-08T22:49:12.593Z,-4.50
2022-12-08T22:54:12.001Z,-4.30
2022-12-08T22:59:09.712Z,-4.40
2022-12-08T23:01:39.239Z,-4.20
2022-12-08T23:04:11.437Z,-4.20
2022-12-08T23:06:46.009Z,-4.30
2022-12-08T23:16:42.118Z,-4.30
2022-12-08T23:19:11.055Z,-4.30
2022-12-08T23:24:10.378Z,-4.30
2022-12-08T23:31:39.138Z,-4.50
2022-12-08T23:34:07.994Z,-4.20
2022-12-08T23:36:37.338Z,-4.40
2022-12-08T23:39:06.824Z,-4.70
2022-12-08T23:41:37.009Z,-4.40
2022-12-08T23:46:34.595Z,-4.50
2022-12-08T23:49:03.138Z,-4.70
2022-12-08T23:59:02.355Z,-4.90
